Reel Selector

Find your model with our interactive Reel Selector.

Reel Selector

Reels 101

Not sure what reel you need?

Learn more

Reel Selector

Find your model with our interactive Reel Selector.

Reel Selector

Reels 101

Not sure what reel you need?

Learn more

Reel Selector

Find your model with our interactive Reel Selector.

Reel Selector

Reels 101

Not sure what reel you need?

Learn more

F

For Booster Hose.

To handle 3/4" I.D. or 1" I.D. hose.


  • Standard booster hose reel is steel, painted graphite. Aluminum or stainless steel construction is also available.
  • Super Booster® (aluminum construction) reel weighs up to 30% less than standard booster reel. Stainless steel construction is also available.
  • Gear-driven crank rewind is standard. Choose chain and sprocket drive powered by electric, hydraulic, or compressed air motor.
  • Pinion brake standard.
  • Standard inlet: 1" 90° ball bearing swivel joint with 1" female NPT threads
  • Standard outlet: 1" male NST threads (1.375" x 8 threads per inch.)
  • Consult factory for other sizes and/or threads.
  • Standard inlet, outlet riser, and hub assembly are steel (also available in stainless steel).
  • Rollers and roller mounting brackets are accessory items. Specify roller position.
  • Pressures to 1000 psi (69 bar).
  • Temperatures from -25°F to +250°F (-32°C to+121°C).
  • Consult factory for reels to operate at other pressures and temperatures.
  • CAUTION: When using Niedner Reeltex® hose, a special riser and/or larger drum diameter is required.


Model shown in image above represents standard configuration with electric rewind


@ Email this page
Jump to:
Reel Capacity, Dimensions and Details
ISO Parts Drawing

Reel Capacity, Dimensions and Details

Reel Capacity:

Show:


Rewind Option:

Show:

Measurements: Standard / Metric
MODEL REEL CAPACITY (ft / lbs) REEL DIMENSIONS (inches)
Size Length Weight A B C D E F G H X Y Relative Size
F32-19-21 3/4 ID 175 102 29.5 24 10.5 20.5 21.62 34.25 21.5 12.12 21.5 16.75
F32-19-21 1 ID 85 102 29.5 24 10.5 20.5 21.62 34.25 21.5 12.12 21.5 16.75
F24-23-24 3/4 ID 150 92 21 15.5 10.5 20.5 23 25.75 23.5 12.12 13 16.75
F24-23-24 1 ID 100 92 21 15.5 10.5 20.5 23 25.75 23.5 12.12 13 16.75
F30-23-24 3/4 ID 225 105 27.5 22 10.5 20.5 23 32.25 23.5 12.12 19.5 16.75
F30-23-24 1 ID 150 105 27.5 22 10.5 20.5 23 32.25 23.5 12.12 19.5 16.75
F38-23-24 3/4 ID 300 120 35 29.5 10.5 20.5 23 39.75 23.5 12.12 27 16.75
F38-23-24 1 ID 175 120 35 29.5 10.5 20.5 23 39.75 23.5 12.12 27 16.75
F28-25-26 3/4 ID 275 113 25.5 20 10.5 25.5 24.75 30.25 27.88 15.5 17.5 21.75
F28-25-26 1 ID 175 113 25.5 20 10.5 25.5 24.75 30.25 27.88 15.5 17.5 21.75
F34-25-26 3/4 ID 350 126 31.5 26 10.5 25.5 24.75 36.25 27.88 15.5 23.5 21.75
F34-25-26 1 ID 225 126 31.5 26 10.5 25.5 24.75 36.25 27.88 15.5 23.5 21.75
F16.5-30-31 3/4 ID 175 100 13.5 8 10.5 25.5 28.75 18.25 29.88 15.5 5.5 21.75
F16.5-30-31 1 ID 100 100 13.5 8 10.5 25.5 28.75 18.25 29.88 15.5 5.5 21.75
F20-30-31 3/4 ID 250 107 17 11.5 10.5 25.5 28.75 21.75 29.88 15.5 9 21.75
F20-30-31 1 ID 125 107 17 11.5 10.5 25.5 28.75 21.75 29.88 15.5 9 21.75
F24-30-31 3/4 ID 350 113 21 15.5 10.5 25.5 28.75 25.75 29.88 15.5 13 21.75
F24-30-31 1 ID 175 113 21 15.5 10.5 25.5 28.75 25.75 29.88 15.5 13 21.75
F28-30-31 1 ID 250 121 25.5 20 10.5 25.5 28.75 30.25 29.88 15.5 17.5 21.75
F30-30-31 1 ID 275 125 27.5 22 10.5 25.5 28.75 32.25 29.88 15.5 19.5 21.75
F34-30-31 1 ID 300 134 31.5 26 10.5 25.5 28.75 36.25 29.88 15.5 23.5 21.75
F20-33-34 3/4 ID 300 107 16.5 11.5 10.5 31.5 31.75 21.12 33.62 17.75 9 27.75
F20-33-34 1 ID 175 107 16.5 11.5 10.5 31.5 31.75 21.12 33.62 17.75 9 27.75
AF32-19-21 3/4 ID 175 122 29.5 24 10.5 20.5 21.62 34.38 21.5 12.12 21.5 16.75
AF32-19-21 1 ID 85 122 29.5 24 10.5 20.5 21.62 34.38 21.5 12.12 21.5 16.75
AF24-23-24 3/4 ID 150 112 21 15.5 10.5 20.5 23 25.88 23.5 12.12 13 16.75
AF24-23-24 1 ID 100 112 21 15.5 10.5 20.5 23 25.88 23.5 12.12 13 16.75
AF30-23-24 3/4 ID 225 125 27.5 22 10.5 20.5 23 32.38 23.5 12.12 19.5 16.75
AF30-23-24 1 ID 150 125 27.5 22 10.5 20.5 23 32.38 23.5 12.12 19.5 16.75
AF38-23-24 3/4 ID 300 140 35 29.5 10.5 20.5 23 41.75 23.5 12.12 27 16.75
AF38-23-24 1 ID 175 140 35 29.5 10.5 20.5 23 41.75 23.5 12.12 27 16.75
AF28-25-26 3/4 ID 275 133 25.5 20 10.5 25.5 24.75 32.25 27.88 15.5 17.5 21.75
AF28-25-26 1 ID 175 133 25.5 20 10.5 25.5 24.75 32.25 27.88 15.5 17.5 21.75
AF34-25-26 3/4 ID 350 146 31.5 26 10.5 25.5 24.75 38.25 27.88 15.5 23.5 21.75
AF34-25-26 1 ID 225 146 31.5 26 10.5 25.5 24.75 38.25 27.88 15.5 23.5 21.75
AF16.5-30-31 3/4 ID 175 120 13.5 8 10.5 25.5 28.75 18.38 29.88 15.5 5.5 21.75
AF16.5-30-31 1 ID 100 120 13.5 8 10.5 25.5 28.75 18.38 29.88 15.5 5.5 21.75
AF20-30-31 3/4 ID 250 127 17 11.5 10.5 25.5 28.75 21.88 29.88 15.5 9 21.75
AF20-30-31 1 ID 125 127 17 11.5 10.5 25.5 28.75 21.88 29.88 15.5 9 21.75
AF24-30-31 3/4 ID 350 133 21 15.5 10.5 25.5 28.75 27.75 29.88 15.5 13 21.75
AF24-30-31 1 ID 175 133 21 15.5 10.5 25.5 28.75 27.75 29.88 15.5 13 21.75
AF28-30-31 1 ID 250 141 25.5 20 10.5 25.5 28.75 32.25 29.88 15.5 17.5 21.75
AF30-30-31 1 ID 275 145 27.5 22 10.5 25.5 28.75 34.25 29.88 15.5 19.5 21.75
AF34-30-31 1 ID 300 154 31.5 26 10.5 25.5 28.75 38.25 29.88 15.5 23.5 21.75
AF20-33-34 3/4 ID 300 127 16.5 11.5 10.5 31.5 31.75 23.25 33.62 17.75 9 27.75
AF20-33-34 1 ID 175 127 16.5 11.5 10.5 31.5 31.75 23.25 33.62 17.75 9 27.75
EF32-19-21 3/4 ID 175 142 29.5 24 10.5 20.5 21.62 34.38 21.5 12.12 21.5 16.75
EF32-19-21 1 ID 85 142 29.5 24 10.5 20.5 21.62 34.38 21.5 12.12 21.5 16.75
EF24-23-24 3/4 ID 150 132 21 15.5 10.5 20.5 23 25.88 23.5 12.12 13 16.75
EF24-23-24 1 ID 100 132 21 15.5 10.5 20.5 23 25.88 23.5 12.12 13 16.75
EF30-23-24 3/4 ID 225 145 27.5 22 10.5 20.5 23 32.38 23.5 12.12 19.5 16.75
EF30-23-24 1 ID 150 145 27.5 22 10.5 20.5 23 32.38 23.5 12.12 19.5 16.75
EPF38-23-24 3/4 ID 300 160 35 29.5 10.5 20.5 23 41.75 23.5 12.12 27 16.75
EPF38-23-24 1 ID 175 160 35 29.5 10.5 20.5 23 41.75 23.5 12.12 27 16.75
EPF28-25-26 3/4 ID 275 153 25.5 20 10.5 25.5 24.75 32.25 27.88 15.5 17.5 21.75
EPF28-25-26 1 ID 175 153 25.5 20 10.5 25.5 24.75 32.25 27.88 15.5 17.5 21.75
EPF34-25-26 3/4 ID 350 166 31.5 26 10.5 25.5 24.75 38.25 27.88 15.5 23.5 21.75
EPF34-25-26 1 ID 225 166 31.5 26 10.5 25.5 24.75 38.25 27.88 15.5 23.5 21.75
EF16.5-30-31 3/4 ID 175 140 13.5 8 10.5 25.5 28.75 18.38 29.88 15.5 5.5 21.75
EF16.5-30-31 1 ID 100 140 13.5 8 10.5 25.5 28.75 18.38 29.88 15.5 5.5 21.75
EF20-30-31 3/4 ID 250 147 17 11.5 10.5 25.5 28.75 21.88 29.88 15.5 9 21.75
EF20-30-31 1 ID 125 147 17 11.5 10.5 25.5 28.75 21.88 29.88 15.5 9 21.75
EPF24-30-31 3/4 ID 350 153 21 15.5 10.5 25.5 28.75 27.75 29.88 15.5 13 21.75
EPF24-30-31 1 ID 175 153 21 15.5 10.5 25.5 28.75 27.75 29.88 15.5 13 21.75
EPF28-30-31 1 ID 250 161 25.5 20 10.5 25.5 28.75 32.25 29.88 15.5 17.5 21.75
EPF30-30-31 1 ID 275 165 27.5 22 10.5 25.5 28.75 34.25 29.88 15.5 19.5 21.75
EPF34-30-31 1 ID 300 174 31.5 26 10.5 25.5 28.75 38.25 29.88 15.5 23.5 21.75
EPF20-33-34 3/4 ID 300 147 16.5 11.5 10.5 31.5 31.75 23.25 33.62 17.75 9 27.75
EPF20-33-34 1 ID 175 147 16.5 11.5 10.5 31.5 31.75 23.25 33.62 17.75 9 27.75
No results available based on the combination of filters chosen above. Please choose a different combination of Reel Capacity/Rewind Option to show more results.
  1. Specifications subject to change.
  2. A two-way flow hub is available at no extra cost and must be specified. Assembly is threaded on both ends so swivel joint can be attached at either end of the reel. A pipe cap seals the opposite end.
  3. Upon request, reels can be supplied with drum lengths other than shown and with disc sizes in other diameters.
  4. Weights shown in chart are for manual rewind models. Add 40 lbs. for power rewind.
  5. When ordering power rewind models, prefix number with: A = Air Rewind; E = Electric Rewind (1/3 HP); EP = Electric Rewind (1/2 HP); HD = Hydraulic Rewind.
  6. Air rewind reels are supplied with control valve and 18" air hose; 12v and 24v DC rewind reels are supplied with switch and solenoid; 115v AC rewind reels are not supplied with switch, but can be ordered separately; hydraulic rewind reels are not supplied with control valve.
  7. For polished aluminum reels, prefix complete model number with "SB", for example: SBEF 32-19-21.
  8. Reels handling 200' or more must use 1/2 HP motor. (Use prefix EP when ordering.)
  9. When installing FH-3 rollers add 4-1/2" to "D" dimension.
  10. Be sure to check dimensions and weights prior to ordering.

Request a Quote

To request a quote, simply complete the form below. It will then be quickly relayed to the person best able to assist you.

Top